Aladdin, Wyoming
Current Conditions -  °F | °C
As of 9:35 AM on Tuesday 27 Jan 2015 (Local Time) from KSPF Reporting Station
Clear Clear  
Wind Chill: 61°   Ceiling: Unl
Heat Index: 61°   Visibility: 10mi
Dew Point: 27°   Wind: 0mph
Humidity: 27%   Direction: NA
Pressure: 30"   Gusts: NA
Location:  44.64°N, 104.18°W
Report Text: KSPF 271635Z AUTO 00000KT 10SM CLR 16/M03 A3000 RMK AO2
Loading
Personal Weather Stations






























Interactive Weather Map New forecast layout! Learn more

10-Day Weather Forecast

Advertisements
Track Severe Weather on mobile